< < Back
Terminal Aerodrome Forecast


Current Version              Previous Versions:   1  2  3  4  5  6  7  8  9  

Terminal Aerodrome Forecast

963
FTUS42 KTAE 291100
TAFDHN
TAF
KDHN 291120Z 2912/3012 00000KT P6SM SKC
     FM291600 18008KT P6SM SCT250
     FM300000 21007KT P6SM SCT250
     FM300800 28006KT P6SM BKN025=



Latest METAR

464
SAUS70 KWBC 301100 RRE
MTRDHN
METAR KDHN 301053Z AUTO 34012KT 10SM CLR 10/05 A3024 RMK AO2 SLP239
T01000050


USA.gov is the U.S. government's official web portal to all federal, state and local government web resources and services.